Time;durP1;ratioP1;P1;durP2;ratioP2;P2;SDS_P1;SDS_P2;PMS_P1;PMS_P2;Temp;Humidity;BMP_temperature;BMP_pressure;BME280_temperature;BME280_humidity;BME280_pressure;Samples;Min_cycle;Max_cycle;Signal;HPM_P1;HPM_P2
2023/03/26 00:00:43;;;;;;;24.20;4.07;;;8.30;99.90;;;;;;5076346;28;20216;-52
2023/03/26 00:03:12;;;;;;;15.70;3.83;;;8.20;99.90;;;;;;5076562;28;20181;-50
2023/03/26 00:05:38;;;;;;;23.70;3.60;;;8.10;99.90;;;;;;5076154;28;20739;-53
2023/03/26 00:08:07;;;;;;;26.30;3.27;;;8.10;99.90;;;;;;5076240;28;20180;-51
2023/03/26 00:10:35;;;;;;;15.97;3.53;;;8.00;99.90;;;;;;5076384;28;21774;-52
2023/03/26 00:13:00;;;;;;;19.70;3.70;;;8.00;99.90;;;;;;5076088;28;20180;-52
2023/03/26 00:15:26;;;;;;;27.80;4.27;;;7.90;99.90;;;;;;5076323;28;20189;-52
2023/03/26 00:17:53;;;;;;;16.07;3.70;;;7.90;99.90;;;;;;5076122;28;20222;-51
2023/03/26 00:20:18;;;;;;;16.47;3.43;;;7.90;99.90;;;;;;5076195;28;20195;-52
2023/03/26 00:22:44;;;;;;;17.23;4.00;;;7.90;99.90;;;;;;5076543;28;20193;-51
2023/03/26 00:25:10;;;;;;;18.40;3.60;;;7.80;99.90;;;;;;5075892;28;20203;-50
2023/03/26 00:27:35;;;;;;;17.17;3.33;;;7.80;99.90;;;;;;5075857;28;20251;-51
2023/03/26 00:30:02;;;;;;;27.27;3.93;;;7.90;99.90;;;;;;5076132;28;20209;-47
2023/03/26 00:32:29;;;;;;;22.37;3.47;;;7.90;99.90;;;;;;5075988;28;20560;-44
2023/03/26 00:34:57;;;;;;;20.37;4.03;;;7.90;99.90;;;;;;5075726;28;20177;-46
2023/03/26 00:37:26;;;;;;;19.77;3.67;;;7.90;99.90;;;;;;5075900;28;20176;-47
2023/03/26 00:40:01;;;;;;;18.90;4.00;;;7.90;99.90;;;;;;5075650;28;20548;-44
2023/03/26 00:42:28;;;;;;;26.73;3.47;;;7.90;99.90;;;;;;5075565;28;20567;-45
2023/03/26 00:44:56;;;;;;;25.30;4.17;;;7.90;99.90;;;;;;5075573;28;20263;-45
2023/03/26 00:47:23;;;;;;;15.37;3.07;;;7.90;99.90;;;;;;5075553;28;20205;-44
2023/03/26 00:49:49;;;;;;;15.17;3.47;;;8.00;99.90;;;;;;5075831;28;20176;-45
2023/03/26 00:52:17;;;;;;;22.47;4.20;;;7.90;99.90;;;;;;5075856;28;20200;-42
2023/03/26 00:54:44;;;;;;;24.27;3.87;;;7.90;99.90;;;;;;5075585;28;20184;-46
2023/03/26 00:57:12;;;;;;;21.90;4.07;;;7.90;99.90;;;;;;5075805;28;20210;-44
2023/03/26 00:59:37;;;;;;;17.70;3.47;;;7.90;99.90;;;;;;5075341;28;20183;-46
2023/03/26 01:02:03;;;;;;;22.00;3.87;;;7.90;99.90;;;;;;5057428;28;20563;-45
2023/03/26 01:04:33;;;;;;;16.20;3.30;;;7.80;99.90;;;;;;5057155;28;20225;-44
2023/03/26 01:07:12;;;;;;;16.23;3.63;;;7.80;99.90;;;;;;5075281;28;20211;-44
2023/03/26 01:09:44;;;;;;;18.30;3.37;;;7.70;99.90;;;;;;5075398;28;20311;-44
2023/03/26 01:12:17;;;;;;;17.70;3.40;;;7.60;99.90;;;;;;5074876;28;20288;-46
2023/03/26 01:14:43;;;;;;;24.73;3.77;;;7.50;99.90;;;;;;5075284;28;20628;-46
2023/03/26 01:17:11;;;;;;;18.17;3.87;;;7.50;99.90;;;;;;5075277;28;20183;-47
2023/03/26 01:19:46;;;;;;;9.77;2.30;;;7.40;99.90;;;;;;5075021;28;20183;-46
2023/03/26 01:22:15;;;;;;;12.33;2.70;;;7.40;99.90;;;;;;5074982;28;20535;-45
2023/03/26 01:24:41;;;;;;;17.20;3.20;;;7.30;99.90;;;;;;5074748;28;20191;-46
2023/03/26 01:27:31;;;;;;;20.87;3.03;;;7.30;99.90;;;;;;5074481;28;20215;-45
2023/03/26 01:30:24;;;;;;;12.50;2.83;;;7.30;99.90;;;;;;5066583;28;20285;-45
2023/03/26 01:33:06;;;;;;;15.17;2.77;;;7.40;99.90;;;;;;5090562;23;20536;-51
2023/03/26 01:35:57;;;;;;;18.43;3.90;;;7.40;99.90;;;;;;5095224;28;20526;-50
2023/03/26 01:38:26;;;;;;;12.97;2.10;;;7.40;99.90;;;;;;5094716;28;20179;-49
2023/03/26 01:41:18;;;;;;;19.53;3.53;;;7.30;99.90;;;;;;5094664;28;20673;-52
2023/03/26 01:43:56;;;;;;;21.57;3.33;;;7.30;99.90;;;;;;5094925;28;20568;-52
2023/03/26 01:46:24;;;;;;;14.50;3.60;;;7.20;99.90;;;;;;5094784;28;20230;-51
2023/03/26 01:48:50;;;;;;;12.30;2.57;;;7.20;99.90;;;;;;5094483;28;20627;-50
2023/03/26 01:51:28;;;;;;;15.53;2.90;;;7.20;99.90;;;;;;5094677;28;20601;-49
2023/03/26 01:53:55;;;;;;;15.77;3.03;;;7.20;99.90;;;;;;5094694;28;20191;-52
2023/03/26 01:56:34;;;;;;;20.03;3.80;;;7.10;99.90;;;;;;5095082;28;20179;-51
2023/03/26 01:59:40;;;;;;;17.77;2.87;;;7.10;99.90;;;;;;5094600;28;20178;-51
2023/03/26 02:02:54;;;;;;;14.00;2.83;;;7.20;99.90;;;;;;5094509;28;20210;-50
2023/03/26 02:05:25;;;;;;;13.90;2.97;;;7.20;99.90;;;;;;5084767;28;20196;-50
2023/03/26 02:07:58;;;;;;;17.37;3.57;;;7.20;99.90;;;;;;5094188;28;20615;-49
2023/03/26 02:10:34;;;;;;;13.63;3.20;;;7.20;99.90;;;;;;5094403;28;20190;-50
2023/03/26 02:13:00;;;;;;;20.23;3.57;;;7.30;99.90;;;;;;5093242;28;20602;-52
2023/03/26 02:15:26;;;;;;;14.00;3.37;;;7.30;99.90;;;;;;5093056;28;20692;-51
2023/03/26 02:17:52;;;;;;;11.60;2.87;;;7.30;99.90;;;;;;5094250;28;20175;-50
2023/03/26 02:20:19;;;;;;;12.60;2.73;;;7.30;99.90;;;;;;5094126;28;20590;-51
2023/03/26 02:22:46;;;;;;;20.70;3.57;;;7.40;99.90;;;;;;5095288;28;20186;-49
2023/03/26 02:25:14;;;;;;;15.57;3.07;;;7.40;99.90;;;;;;5094054;28;20602;-53
2023/03/26 02:27:41;;;;;;;17.47;3.13;;;7.40;99.90;;;;;;5094167;28;20171;-51
2023/03/26 02:30:10;;;;;;;18.10;2.87;;;7.30;99.90;;;;;;5093793;28;20652;-50
2023/03/26 02:32:37;;;;;;;15.57;3.03;;;7.40;99.90;;;;;;5093535;28;20199;-51
2023/03/26 02:35:04;;;;;;;15.83;2.97;;;7.40;99.90;;;;;;5094065;28;20194;-50
2023/03/26 02:37:32;;;;;;;13.23;2.40;;;7.40;99.90;;;;;;5093987;28;20187;-50
2023/03/26 02:40:03;;;;;;;16.57;3.20;;;7.40;99.90;;;;;;5093590;28;20270;-52
2023/03/26 02:42:29;;;;;;;12.70;2.67;;;7.40;99.90;;;;;;5093883;28;20221;-50
2023/03/26 02:44:54;;;;;;;13.40;2.93;;;7.50;99.90;;;;;;5093639;28;20206;-52
2023/03/26 02:47:20;;;;;;;13.00;2.67;;;7.50;99.90;;;;;;5093454;28;20672;-49
2023/03/26 02:49:45;;;;;;;15.40;2.93;;;7.50;99.90;;;;;;5093584;28;20171;-52
2023/03/26 02:52:11;;;;;;;10.40;2.33;;;7.50;99.90;;;;;;5093413;28;20190;-51
2023/03/26 02:54:37;;;;;;;12.40;2.30;;;7.50;99.90;;;;;;5093748;28;20202;-52
2023/03/26 02:57:02;;;;;;;13.97;2.60;;;7.60;99.90;;;;;;5093678;28;20593;-51
2023/03/26 02:59:28;;;;;;;9.40;2.30;;;7.50;99.90;;;;;;5093458;28;20179;-51
2023/03/26 03:01:53;;;;;;;11.60;2.30;;;7.50;99.90;;;;;;5093961;28;20202;-51
2023/03/26 03:04:20;;;;;;;15.63;2.90;;;7.60;99.90;;;;;;5093999;28;20658;-50
2023/03/26 03:06:45;;;;;;;10.10;2.20;;;7.50;99.90;;;;;;5093317;28;20206;-50
2023/03/26 03:09:11;;;;;;;10.53;2.87;;;7.60;99.90;;;;;;5093631;28;20241;-49
2023/03/26 03:11:41;;;;;;;9.53;2.50;;;7.60;99.90;;;;;;5093469;28;20226;-50
2023/03/26 03:14:06;;;;;;;13.23;3.00;;;7.60;99.90;;;;;;5093913;28;20203;-51
2023/03/26 03:16:32;;;;;;;14.83;2.73;;;7.60;99.90;;;;;;5093279;28;20181;-50
2023/03/26 03:18:58;;;;;;;10.57;2.03;;;7.60;99.90;;;;;;5093297;28;20183;-50
2023/03/26 03:21:26;;;;;;;9.13;1.97;;;7.60;99.90;;;;;;5094036;28;20203;-46
2023/03/26 03:23:53;;;;;;;11.23;2.20;;;7.60;99.90;;;;;;5093242;28;20175;-45
2023/03/26 03:26:21;;;;;;;12.13;2.30;;;7.60;99.90;;;;;;5093179;28;20195;-48
2023/03/26 03:28:50;;;;;;;6.97;1.80;;;7.60;99.90;;;;;;5097127;28;20511;-45
2023/03/26 03:31:17;;;;;;;7.00;2.00;;;7.60;99.90;;;;;;5097489;28;20206;-45
2023/03/26 03:33:42;;;;;;;8.03;2.03;;;7.60;99.90;;;;;;5097188;28;20190;-46
2023/03/26 03:36:13;;;;;;;13.03;1.97;;;7.60;99.90;;;;;;5097347;28;20171;-46
2023/03/26 03:38:40;;;;;;;11.37;2.13;;;7.60;99.90;;;;;;5097119;28;20260;-47
2023/03/26 03:41:07;;;;;;;12.93;2.57;;;7.60;99.90;;;;;;5097186;28;20613;-44
2023/03/26 03:43:33;;;;;;;13.50;2.23;;;7.60;99.90;;;;;;5096920;28;20182;-46
2023/03/26 03:45:59;;;;;;;12.33;2.83;;;7.50;99.90;;;;;;5097088;28;20206;-46
2023/03/26 03:48:26;;;;;;;11.27;2.43;;;7.50;99.90;;;;;;5097919;28;20175;-44
2023/03/26 03:50:52;;;;;;;8.50;2.40;;;7.50;99.90;;;;;;5095473;28;20252;-46
2023/03/26 03:53:18;;;;;;;10.30;2.10;;;7.50;99.90;;;;;;5096982;28;20179;-44
2023/03/26 03:55:51;;;;;;;12.30;2.40;;;7.50;99.90;;;;;;5096989;28;20182;-45
2023/03/26 03:58:22;;;;;;;14.50;2.40;;;7.50;99.90;;;;;;5096924;28;20170;-43
2023/03/26 04:00:51;;;;;;;12.17;2.70;;;7.40;99.90;;;;;;5096867;28;20588;-45
2023/03/26 04:03:18;;;;;;;11.67;2.37;;;7.40;99.90;;;;;;5096562;28;20171;-47
2023/03/26 04:05:53;;;;;;;11.03;2.10;;;7.40;99.90;;;;;;5096843;28;20593;-46
2023/03/26 04:08:20;;;;;;;7.17;2.33;;;7.40;99.90;;;;;;5096760;28;20174;-46
2023/03/26 04:10:46;;;;;;;8.53;2.10;;;7.40;99.90;;;;;;5095112;28;20248;-46
2023/03/26 04:13:13;;;;;;;10.13;2.40;;;7.30;99.90;;;;;;5096359;28;20182;-47
2023/03/26 04:15:40;;;;;;;11.20;2.37;;;7.30;99.90;;;;;;5096304;28;20179;-45
2023/03/26 04:18:09;;;;;;;9.80;2.30;;;7.40;99.90;;;;;;5096294;28;20182;-44
2023/03/26 04:20:40;;;;;;;6.07;1.90;;;7.30;99.90;;;;;;5096511;28;20640;-45
2023/03/26 04:23:07;;;;;;;10.17;2.23;;;7.30;99.90;;;;;;5097430;28;20167;-46
2023/03/26 04:25:35;;;;;;;12.10;2.17;;;7.30;99.90;;;;;;5096353;28;20179;-47
2023/03/26 04:28:05;;;;;;;14.30;1.87;;;7.20;99.90;;;;;;5096394;28;20182;-47
2023/03/26 04:30:32;;;;;;;8.77;1.63;;;7.20;99.90;;;;;;5095951;28;20619;-46
2023/03/26 04:33:02;;;;;;;8.80;2.03;;;7.20;99.90;;;;;;5095824;28;20183;-46
2023/03/26 04:35:35;;;;;;;8.13;2.50;;;7.20;99.90;;;;;;5096006;28;20532;-46
2023/03/26 04:38:05;;;;;;;9.17;1.90;;;7.10;99.90;;;;;;5096367;28;20487;-47
2023/03/26 04:40:33;;;;;;;8.77;2.20;;;7.10;99.90;;;;;;5095588;28;20183;-45
2023/03/26 04:43:02;;;;;;;12.17;2.07;;;7.10;99.90;;;;;;5095833;28;20254;-47
2023/03/26 04:45:29;;;;;;;11.27;2.30;;;7.10;99.90;;;;;;5095680;28;20179;-46
2023/03/26 04:47:57;;;;;;;7.57;1.87;;;7.10;99.90;;;;;;5095994;28;20175;-46
2023/03/26 04:50:22;;;;;;;11.57;2.77;;;7.10;99.90;;;;;;5095645;28;20175;-49
2023/03/26 04:52:48;;;;;;;9.27;2.13;;;7.10;99.90;;;;;;5095906;28;20182;-45
2023/03/26 04:55:52;;;;;;;12.73;2.30;;;7.00;99.90;;;;;;5095669;28;20175;-48
2023/03/26 04:58:18;;;;;;;12.70;2.23;;;7.10;99.90;;;;;;5072310;28;20202;-46
2023/03/26 05:00:46;;;;;;;10.20;2.20;;;7.10;99.90;;;;;;5095658;28;20548;-47
2023/03/26 05:03:12;;;;;;;12.80;2.70;;;7.10;99.90;;;;;;5095634;28;20550;-46
2023/03/26 05:05:39;;;;;;;12.53;3.03;;;7.10;99.90;;;;;;5095347;28;20674;-47
2023/03/26 05:08:05;;;;;;;11.77;1.87;;;7.10;99.90;;;;;;5095818;28;20187;-46
2023/03/26 05:10:31;;;;;;;10.80;2.50;;;7.20;99.90;;;;;;5095821;28;20540;-45
2023/03/26 05:12:56;;;;;;;10.70;2.27;;;7.20;99.90;;;;;;5095548;28;20190;-48
2023/03/26 05:15:22;;;;;;;13.97;2.37;;;7.20;99.90;;;;;;5095422;28;20182;-46
2023/03/26 05:17:48;;;;;;;10.77;2.60;;;7.30;99.90;;;;;;5095412;28;20178;-49
2023/03/26 05:20:22;;;;;;;10.03;2.27;;;7.30;99.90;;;;;;5095316;28;20258;-45
2023/03/26 05:22:49;;;;;;;14.07;2.80;;;7.30;99.90;;;;;;5096086;28;20182;-44
2023/03/26 05:25:16;;;;;;;11.13;2.27;;;7.30;99.90;;;;;;5095289;28;20256;-45
2023/03/26 05:27:42;;;;;;;7.87;2.23;;;7.40;99.90;;;;;;5095199;28;20547;-44
2023/03/26 05:30:08;;;;;;;7.00;2.00;;;7.30;99.90;;;;;;5095155;28;20174;-45
2023/03/26 05:32:34;;;;;;;16.03;1.83;;;7.40;99.90;;;;;;5094674;28;20201;-44
2023/03/26 05:35:00;;;;;;;6.73;2.03;;;7.40;99.90;;;;;;5095130;28;20171;-46
2023/03/26 05:37:29;;;;;;;10.00;1.97;;;7.30;99.90;;;;;;5095029;28;20217;-45
2023/03/26 05:39:56;;;;;;;6.60;1.87;;;7.40;99.90;;;;;;5095075;28;20171;-46
2023/03/26 05:42:22;;;;;;;9.47;2.10;;;7.40;99.90;;;;;;5094810;28;20209;-44
2023/03/26 05:44:47;;;;;;;11.57;2.50;;;7.40;99.90;;;;;;5095659;28;20174;-44
2023/03/26 05:47:13;;;;;;;9.27;1.90;;;7.40;99.90;;;;;;5094803;28;20234;-46
2023/03/26 05:49:39;;;;;;;9.90;2.23;;;7.30;99.90;;;;;;5094377;28;20179;-45
2023/03/26 05:52:04;;;;;;;7.23;2.60;;;7.40;99.90;;;;;;5094451;28;20693;-46
2023/03/26 05:54:30;;;;;;;8.40;2.30;;;7.30;99.90;;;;;;5094729;28;20209;-44
2023/03/26 05:56:56;;;;;;;9.47;2.07;;;7.30;99.90;;;;;;5094627;28;20179;-44
2023/03/26 05:59:22;;;;;;;7.20;2.03;;;7.40;99.90;;;;;;5094343;28;20177;-45
2023/03/26 06:01:49;;;;;;;13.00;2.47;;;7.40;99.90;;;;;;5094348;28;20260;-45
2023/03/26 06:04:16;;;;;;;8.57;2.17;;;7.30;99.90;;;;;;5094476;28;20308;-43
2023/03/26 06:06:41;;;;;;;7.30;2.00;;;7.30;99.90;;;;;;5094674;28;20239;-42
2023/03/26 06:09:07;;;;;;;10.97;2.80;;;7.30;99.90;;;;;;5094142;28;20258;-46
2023/03/26 06:11:33;;;;;;;11.60;2.43;;;7.30;99.90;;;;;;5094265;28;20206;-45
2023/03/26 06:13:59;;;;;;;9.43;2.30;;;7.30;99.90;;;;;;5094303;28;20178;-44
2023/03/26 06:16:25;;;;;;;8.13;2.30;;;7.30;99.90;;;;;;5094120;28;20643;-44
2023/03/26 06:18:52;;;;;;;8.80;2.77;;;7.30;99.90;;;;;;5094193;28;20178;-44
2023/03/26 06:21:18;;;;;;;10.20;2.00;;;7.40;99.90;;;;;;5094114;28;20606;-45
2023/03/26 06:23:44;;;;;;;11.20;2.50;;;7.30;99.90;;;;;;5095852;28;20174;-49
2023/03/26 06:26:09;;;;;;;9.07;2.73;;;7.30;99.90;;;;;;5093063;28;20285;-51
2023/03/26 06:28:35;;;;;;;7.93;3.13;;;7.30;99.90;;;;;;5094121;28;20702;-50
2023/03/26 06:31:01;;;;;;;14.23;3.53;;;7.40;99.90;;;;;;5093938;28;20200;-51
2023/03/26 06:33:27;;;;;;;10.30;2.73;;;7.40;99.90;;;;;;5093843;28;20198;-50
2023/03/26 06:35:53;;;;;;;8.53;2.23;;;7.40;99.90;;;;;;5093728;28;20171;-50
2023/03/26 06:38:18;;;;;;;10.77;2.10;;;7.40;99.90;;;;;;5093973;28;20182;-51
2023/03/26 06:40:44;;;;;;;14.73;3.10;;;7.40;99.90;;;;;;5093608;28;20226;-50
2023/03/26 06:43:10;;;;;;;11.50;2.63;;;7.40;99.90;;;;;;5093734;28;20542;-52
2023/03/26 06:45:36;;;;;;;8.93;2.37;;;7.40;99.90;;;;;;5093578;28;20189;-49
2023/03/26 06:48:03;;;;;;;7.23;2.57;;;7.50;99.90;;;;;;5092628;28;20179;-49
2023/03/26 06:50:30;;;;;;;15.77;2.50;;;7.40;99.90;;;;;;5093887;28;20198;-50
2023/03/26 06:52:56;;;;;;;10.07;2.63;;;7.40;99.90;;;;;;5093547;28;20175;-51
2023/03/26 06:55:23;;;;;;;8.27;2.70;;;7.50;99.90;;;;;;5093509;28;20622;-50
2023/03/26 06:57:53;;;;;;;16.13;2.53;;;7.50;99.90;;;;;;5093727;28;20183;-48
2023/03/26 07:00:19;;;;;;;6.97;1.80;;;7.50;99.90;;;;;;5093616;28;20182;-50
2023/03/26 07:02:45;;;;;;;9.10;1.97;;;7.50;99.90;;;;;;5092932;28;20225;-50
2023/03/26 07:05:12;;;;;;;12.97;3.10;;;7.50;99.90;;;;;;5093412;28;20179;-49
2023/03/26 07:07:38;;;;;;;9.57;2.30;;;7.50;99.90;;;;;;5093270;28;20732;-50
2023/03/26 07:10:05;;;;;;;6.70;1.77;;;7.50;99.90;;;;;;5093689;28;20175;-50
2023/03/26 07:12:30;;;;;;;10.60;2.90;;;7.50;99.90;;;;;;5093267;28;20650;-51
2023/03/26 07:14:56;;;;;;;15.93;2.63;;;7.50;99.90;;;;;;5093948;28;20250;-51
2023/03/26 07:17:21;;;;;;;9.03;2.17;;;7.50;99.90;;;;;;5093575;28;20626;-52
2023/03/26 07:19:47;;;;;;;11.00;2.57;;;7.50;99.90;;;;;;5093559;28;20178;-50
2023/03/26 07:22:22;;;;;;;7.57;2.07;;;7.50;99.90;;;;;;5094396;28;20233;-46
2023/03/26 07:24:48;;;;;;;9.83;2.43;;;7.50;99.90;;;;;;5093204;28;20171;-48
2023/03/26 07:27:32;;;;;;;11.47;2.80;;;7.50;99.90;;;;;;5093677;28;20555;-45
2023/03/26 07:30:00;;;;;;;8.20;1.87;;;7.60;99.90;;;;;;5093781;28;20518;-44
2023/03/26 07:32:46;;;;;;;12.27;2.63;;;7.60;99.90;;;;;;5093221;28;20203;-46
2023/03/26 07:35:25;;;;;;;8.83;2.47;;;7.60;99.90;;;;;;5092833;28;20673;-46
2023/03/26 07:38:28;;;;;;;9.67;2.17;;;7.60;99.90;;;;;;5093157;28;20153;-45
2023/03/26 07:41:21;;;;;;;7.57;2.30;;;7.60;99.90;;;;;;5093093;28;20663;-44
2023/03/26 07:44:13;;;;;;;10.53;2.37;;;7.70;99.90;;;;;;5093115;28;20665;-45
2023/03/26 07:46:40;;;;;;;10.83;2.37;;;7.70;99.90;;;;;;5093252;28;20198;-46
2023/03/26 07:49:10;;;;;;;11.20;2.27;;;7.70;99.90;;;;;;5092974;28;20216;-45
2023/03/26 07:51:35;;;;;;;9.50;2.63;;;7.70;99.90;;;;;;5093125;28;20194;-44
2023/03/26 07:54:03;;;;;;;12.90;2.47;;;7.70;99.90;;;;;;5093467;28;20191;-45
2023/03/26 07:56:35;;;;;;;12.47;2.10;;;7.70;99.90;;;;;;5092999;28;20171;-45
2023/03/26 07:59:01;;;;;;;9.37;1.77;;;7.70;99.90;;;;;;5093228;28;20163;-45
2023/03/26 08:01:50;;;;;;;10.87;2.50;;;7.70;99.90;;;;;;5092887;28;20270;-45
2023/03/26 08:04:53;;;;;;;7.43;2.10;;;7.70;99.90;;;;;;5093505;28;20163;-47
2023/03/26 08:07:50;;;;;;;8.53;2.43;;;7.70;99.90;;;;;;5055635;28;20223;-47
2023/03/26 08:10:38;;;;;;;8.00;2.77;;;7.70;99.90;;;;;;5092993;28;20179;-46
2023/03/26 08:13:45;;;;;;;11.67;2.50;;;7.80;99.90;;;;;;5093349;28;20225;-44
2023/03/26 08:16:24;;;;;;;7.40;2.10;;;7.80;99.90;;;;;;5101426;28;20228;-44
2023/03/26 08:18:58;;;;;;;10.37;2.63;;;7.70;99.90;;;;;;5100507;28;20159;-47
2023/03/26 08:21:41;;;;;;;8.20;2.20;;;7.70;99.90;;;;;;5103872;28;20185;-46
2023/03/26 08:24:32;;;;;;;8.77;2.63;;;7.70;99.90;;;;;;5102530;28;20160;-46
2023/03/26 08:27:23;;;;;;;10.97;2.67;;;7.70;99.90;;;;;;5102741;28;20201;-47
2023/03/26 08:30:12;;;;;;;7.63;2.43;;;7.70;99.90;;;;;;5096248;28;20179;-47
2023/03/26 08:32:38;;;;;;;6.30;2.23;;;7.70;99.90;;;;;;5096266;28;20662;-45
2023/03/26 08:35:04;;;;;;;5.30;1.67;;;7.70;99.90;;;;;;5097226;28;20170;-47
2023/03/26 08:37:30;;;;;;;5.40;1.80;;;7.70;99.90;;;;;;5096391;28;20190;-47
2023/03/26 08:39:55;;;;;;;2.90;1.13;;;7.70;99.90;;;;;;5096411;28;20175;-46
2023/03/26 08:43:00;;;;;;;3.17;1.03;;;7.60;99.90;;;;;;5096178;28;20198;-47
2023/03/26 08:45:56;;;;;;;3.37;1.40;;;7.60;99.90;;;;;;5076457;28;20609;-47
2023/03/26 08:48:34;;;;;;;1.93;1.10;;;7.60;99.90;;;;;;5095780;28;20269;-48
2023/03/26 08:51:11;;;;;;;3.50;1.00;;;7.60;99.90;;;;;;5096061;28;20202;-45
2023/03/26 08:53:41;;;;;;;4.00;1.00;;;7.50;99.90;;;;;;5095993;28;20580;-46
2023/03/26 08:56:33;;;;;;;4.37;1.57;;;7.50;99.90;;;;;;5095569;28;20228;-44
2023/03/26 08:59:21;;;;;;;3.67;1.20;;;7.60;99.90;;;;;;5096375;28;20597;-46
2023/03/26 09:01:55;;;;;;;4.53;1.37;;;7.60;99.90;;;;;;5095723;28;20204;-46
2023/03/26 09:04:45;;;;;;;4.50;1.60;;;7.60;99.90;;;;;;5095877;28;20194;-44
2023/03/26 09:07:56;;;;;;;4.90;1.60;;;7.60;99.90;;;;;;5095334;28;20222;-46
2023/03/26 09:10:39;;;;;;;7.13;1.50;;;7.60;99.90;;;;;;5079166;28;20182;-45
2023/03/26 09:13:21;;;;;;;4.47;1.93;;;7.60;99.90;;;;;;5095706;28;20167;-47
2023/03/26 09:16:20;;;;;;;6.67;1.53;;;7.60;99.90;;;;;;5095648;28;20175;-48
2023/03/26 09:19:16;;;;;;;8.03;2.03;;;7.60;99.90;;;;;;5095313;28;20187;-47
2023/03/26 09:22:03;;;;;;;4.07;1.10;;;7.60;99.90;;;;;;5096264;28;20218;-45
2023/03/26 09:24:29;;;;;;;5.97;1.50;;;7.60;99.90;;;;;;5094778;28;20603;-43
2023/03/26 09:27:35;;;;;;;4.10;1.20;;;7.60;99.90;;;;;;5095126;28;20213;-46
2023/03/26 09:30:27;;;;;;;5.40;1.50;;;7.60;99.90;;;;;;5095644;28;20602;-47
2023/03/26 09:33:06;;;;;;;4.97;0.87;;;7.60;99.90;;;;;;5095203;28;20187;-46
2023/03/26 09:36:06;;;;;;;4.60;1.30;;;7.60;99.90;;;;;;5095232;28;20183;-46
2023/03/26 09:38:44;;;;;;;3.63;1.07;;;7.60;99.90;;;;;;5071702;28;20543;-46
2023/03/26 09:41:17;;;;;;;3.67;0.90;;;7.70;99.90;;;;;;5094986;28;20550;-47
2023/03/26 09:44:13;;;;;;;2.60;0.97;;;7.70;99.90;;;;;;5094690;28;20183;-48
2023/03/26 09:46:50;;;;;;;3.13;1.10;;;7.70;99.90;;;;;;5094680;28;20209;-49
2023/03/26 09:49:28;;;;;;;3.23;1.10;;;7.70;99.90;;;;;;5094665;28;20175;-47
2023/03/26 09:52:26;;;;;;;4.30;1.10;;;7.80;99.90;;;;;;5094552;28;20207;-46
2023/03/26 09:55:19;;;;;;;3.37;1.30;;;7.80;99.90;;;;;;5094819;28;20536;-45
2023/03/26 09:58:03;;;;;;;4.13;1.77;;;7.90;99.90;;;;;;5095221;28;20175;-45
2023/03/26 10:00:47;;;;;;;5.20;2.63;;;7.90;99.90;;;;;;5094543;28;20280;-45
2023/03/26 10:03:33;;;;;;;4.63;1.60;;;8.00;99.90;;;;;;5094329;28;20246;-47
2023/03/26 10:06:26;;;;;;;5.30;1.70;;;8.00;99.90;;;;;;5086825;28;20218;-47
2023/03/26 10:09:30;;;;;;;5.37;2.23;;;8.00;99.90;;;;;;5094814;28;20246;-44
2023/03/26 10:12:23;;;;;;;3.33;1.10;;;8.10;99.90;;;;;;5094323;28;20583;-43
2023/03/26 10:15:15;;;;;;;4.60;1.50;;;8.10;99.90;;;;;;5094427;28;20178;-48
2023/03/26 10:18:04;;;;;;;6.40;2.23;;;8.20;99.90;;;;;;5094650;28;20176;-45
2023/03/26 10:20:57;;;;;;;6.60;2.40;;;8.20;99.90;;;;;;5094971;28;20232;-47
2023/03/26 10:23:47;;;;;;;5.57;2.10;;;8.20;99.90;;;;;;5094310;28;20171;-50
2023/03/26 10:26:43;;;;;;;5.87;1.60;;;8.30;99.90;;;;;;5094099;28;20211;-50
2023/03/26 10:29:12;;;;;;;5.63;2.17;;;8.30;99.90;;;;;;5094169;28;20185;-52
2023/03/26 10:31:47;;;;;;;5.97;2.30;;;8.30;99.90;;;;;;5093852;28;20677;-51
2023/03/26 10:34:37;;;;;;;6.20;2.07;;;8.30;99.90;;;;;;5092352;28;20198;-51
2023/03/26 10:37:12;;;;;;;6.73;2.10;;;8.30;99.90;;;;;;5093328;28;20255;-53
2023/03/26 10:39:57;;;;;;;8.80;2.60;;;8.40;99.90;;;;;;5093939;28;20162;-51
2023/03/26 10:42:54;;;;;;;5.03;2.20;;;8.40;99.90;;;;;;5093900;28;20203;-52
2023/03/26 10:45:47;;;;;;;6.33;1.50;;;8.40;99.90;;;;;;5094486;28;20182;-52
2023/03/26 10:48:25;;;;;;;4.47;1.60;;;8.40;99.90;;;;;;5093661;28;20179;-52
2023/03/26 10:50:53;;;;;;;3.60;1.63;;;8.40;99.90;;;;;;5093996;28;20556;-50
2023/03/26 10:53:46;;;;;;;5.67;1.80;;;8.40;99.90;;;;;;5093833;28;20179;-53
2023/03/26 10:56:12;;;;;;;4.40;1.77;;;8.40;99.90;;;;;;5093529;28;20629;-50
2023/03/26 10:58:39;;;;;;;5.63;1.70;;;8.40;99.90;;;;;;5093728;28;20183;-50
2023/03/26 11:01:14;;;;;;;6.33;2.40;;;8.40;99.90;;;;;;5093404;28;20234;-51
2023/03/26 11:03:50;;;;;;;4.63;2.00;;;8.50;99.90;;;;;;5093737;28;20179;-50
2023/03/26 11:06:19;;;;;;;6.27;2.07;;;8.40;99.90;;;;;;5093652;28;20198;-50
2023/03/26 11:09:06;;;;;;;4.60;1.70;;;8.50;99.90;;;;;;5093661;28;20175;-50
2023/03/26 11:11:43;;;;;;;5.60;1.90;;;8.50;99.90;;;;;;5093907;28;20289;-51
2023/03/26 11:14:58;;;;;;;6.13;2.13;;;8.50;99.90;;;;;;5093233;28;20158;-52
2023/03/26 11:18:01;;;;;;;2.17;1.40;;;8.50;99.90;;;;;;5069742;28;20186;-53
2023/03/26 11:21:11;;;;;;;4.00;1.50;;;8.60;99.90;;;;;;5093455;28;20180;-52
2023/03/26 11:23:58;;;;;;;5.70;1.70;;;8.60;99.90;;;;;;5083398;28;20187;-52
2023/03/26 11:26:48;;;;;;;2.33;1.63;;;8.60;99.90;;;;;;5093252;28;20195;-52
2023/03/26 11:29:28;;;;;;;4.90;1.90;;;8.60;99.90;;;;;;5093465;28;20165;-52
2023/03/26 11:31:56;;;;;;;4.77;2.37;;;8.60;99.90;;;;;;5093432;28;20617;-51
2023/03/26 11:34:29;;;;;;;4.93;1.77;;;8.60;99.90;;;;;;5093036;28;20727;-50
2023/03/26 11:36:57;;;;;;;6.80;2.10;;;8.60;99.90;;;;;;5093446;28;20503;-51
2023/03/26 11:39:27;;;;;;;3.23;1.90;;;8.60;99.90;;;;;;5093344;28;20238;-52
2023/03/26 11:42:04;;;;;;;5.40;2.27;;;8.60;99.90;;;;;;5092987;28;20259;-50
2023/03/26 11:44:37;;;;;;;3.77;1.73;;;8.50;99.90;;;;;;5093375;28;20196;-50
2023/03/26 11:47:09;;;;;;;2.60;1.77;;;8.50;99.90;;;;;;5093298;28;20277;-52
2023/03/26 11:49:35;;;;;;;3.60;1.83;;;8.60;99.90;;;;;;5097252;28;20249;-51
2023/03/26 11:52:02;;;;;;;7.30;3.27;;;8.60;99.90;;;;;;5095584;28;20221;-51
2023/03/26 11:54:28;;;;;;;5.63;3.03;;;8.60;99.90;;;;;;5097361;28;20186;-52
2023/03/26 11:56:57;;;;;;;5.27;2.70;;;8.60;99.90;;;;;;5099625;28;20190;-52
2023/03/26 11:59:26;;;;;;;6.57;2.40;;;8.60;99.90;;;;;;5096677;28;20566;-52
2023/03/26 12:02:08;;;;;;;5.47;2.93;;;8.60;99.90;;;;;;5097910;28;20271;-53
2023/03/26 12:04:42;;;;;;;5.63;2.27;;;8.60;99.90;;;;;;5096903;28;20178;-55
2023/03/26 12:07:21;;;;;;;9.43;3.83;;;8.60;99.90;;;;;;5097886;28;20208;-51
2023/03/26 12:10:11;;;;;;;4.53;2.03;;;8.60;99.90;;;;;;5096920;28;20223;-51
2023/03/26 12:12:40;;;;;;;7.87;2.40;;;8.60;99.90;;;;;;5089037;28;20233;-51
2023/03/26 12:15:15;;;;;;;5.93;3.70;;;8.60;99.90;;;;;;5096817;28;20182;-54
2023/03/26 12:17:41;;;;;;;6.00;2.50;;;8.50;99.90;;;;;;5097315;28;20173;-50
2023/03/26 12:20:25;;;;;;;2.83;1.93;;;8.50;99.90;;;;;;5096708;28;20182;-50
2023/03/26 12:22:57;;;;;;;4.40;2.00;;;8.50;99.90;;;;;;5097087;28;20176;-52
2023/03/26 12:25:57;;;;;;;4.57;2.33;;;8.40;99.90;;;;;;5098636;28;20170;-46
2023/03/26 12:28:31;;;;;;;4.90;2.20;;;8.40;99.90;;;;;;5108378;28;20211;-45
2023/03/26 12:31:02;;;;;;;2.60;2.10;;;8.30;99.90;;;;;;5097598;28;20201;-47
2023/03/26 12:33:32;;;;;;;3.63;2.27;;;8.30;99.90;;;;;;5096079;28;20190;-49
2023/03/26 12:36:15;;;;;;;6.27;3.27;;;8.30;99.90;;;;;;5096059;28;20174;-51
2023/03/26 12:38:41;;;;;;;5.30;2.20;;;8.20;99.90;;;;;;5096336;28;20170;-49
2023/03/26 12:41:08;;;;;;;5.30;2.50;;;8.20;99.90;;;;;;5096151;28;20279;-49
2023/03/26 12:43:51;;;;;;;4.57;2.80;;;8.30;99.90;;;;;;5095911;28;20185;-50
2023/03/26 12:46:30;;;;;;;4.13;2.37;;;8.20;99.90;;;;;;5095853;28;20200;-50
2023/03/26 12:48:59;;;;;;;3.40;2.40;;;8.20;99.90;;;;;;5096162;28;20177;-51
2023/03/26 12:51:40;;;;;;;3.03;2.40;;;8.30;99.90;;;;;;5095979;28;20583;-50
2023/03/26 12:54:29;;;;;;;3.93;2.10;;;8.30;99.90;;;;;;5095921;28;20172;-51
2023/03/26 12:57:15;;;;;;;2.93;1.87;;;8.30;99.90;;;;;;5095677;28;20656;-51
2023/03/26 13:00:05;;;;;;;5.37;2.20;;;8.30;99.90;;;;;;5094742;28;20174;-49
2023/03/26 13:02:46;;;;;;;3.10;1.70;;;8.30;99.90;;;;;;5095797;28;20202;-50
2023/03/26 13:05:30;;;;;;;3.67;2.47;;;8.40;99.90;;;;;;5095609;28;20557;-51
2023/03/26 13:08:32;;;;;;;3.70;2.00;;;8.30;99.90;;;;;;5095730;28;20676;-50
2023/03/26 13:11:37;;;;;;;5.47;2.33;;;8.40;99.90;;;;;;5095560;28;20186;-51
2023/03/26 13:14:39;;;;;;;5.13;2.33;;;8.40;99.90;;;;;;5094308;28;20189;-52
2023/03/26 13:17:38;;;;;;;4.70;2.60;;;8.40;99.90;;;;;;5096101;28;20239;-50
2023/03/26 13:20:23;;;;;;;4.03;2.00;;;8.40;99.90;;;;;;5095602;28;20172;-50
2023/03/26 13:23:11;;;;;;;3.83;2.63;;;8.40;99.90;;;;;;5097035;28;20159;-50
2023/03/26 13:25:44;;;;;;;4.77;1.97;;;8.30;99.90;;;;;;5095289;28;20228;-50
2023/03/26 13:28:39;;;;;;;4.67;1.97;;;8.30;99.90;;;;;;5095433;28;20166;-52
2023/03/26 13:31:15;;;;;;;1.90;1.60;;;8.30;99.90;;;;;;5095117;28;20200;-51